This is the latest recevied weather packets stored in our database for station/object N5GMJ. If no packets are shown the sender has not sent any weather packets the latest 10 day(s).
| Time | Temp. | Humidity | Pressure | Rain* | Wind** | Luminosity | Snow |
|---|---|---|---|---|---|---|---|
| 1787497226 | 36.11° C | 37% | 1017.3 hPa | 0 mm | - | - | - |
| 1787496920 | 36.11° C | 36% | 1017.3 hPa | 0 mm | - | - | - |
| 1787496615 | 35.56° C | 38% | 1017.4 hPa | 0 mm | - | - | - |
| 1787496310 | 35° C | 39% | 1017.3 hPa | 0 mm | - | - | - |
| 1787496009 | 35° C | 40% | 1017.4 hPa | 0 mm | - | - | - |
| 1787495705 | 34.44° C | 40% | 1017.3 hPa | 0 mm | - | - | - |
| 1787495401 | 32.78° C | 43% | 1017.2 hPa | 0 mm | - | - | - |
| 1787495097 | 33.33° C | 43% | 1017.2 hPa | 0 mm | - | - | - |
| 1787494796 | 33.33° C | 43% | 1017.1 hPa | 0 mm | - | - | - |
| 1787494492 | 32.78° C | 45% | 1017.3 hPa | 0 mm | - | - | - |
| 1787494187 | 32.78° C | 47% | 1017.1 hPa | 0 mm | - | - | - |
| 1787493883 | 32.22° C | 50% | 1017.1 hPa | 0 mm | - | - | - |
| 1787493578 | 31.67° C | 53% | 1017.2 hPa | 0 mm | - | - | - |
| 1787493274 | 31.11° C | 53% | 1017.3 hPa | 0 mm | - | - | - |
| 1787492970 | 30.56° C | 55% | 1017.3 hPa | 0 mm | - | - | - |
| 1787492665 | 31.11° C | 53% | 1017.1 hPa | 0 mm | - | - | - |
| 1787492361 | 31.11° C | 53% | 1017.2 hPa | 0 mm | - | - | - |
| 1787492061 | 30.56° C | 55% | 1017.2 hPa | 0 mm | - | - | - |
| 1787491757 | 30° C | 57% | 1017.2 hPa | 0 mm | - | - | - |
| 1787491452 | 30° C | 58% | 1017.2 hPa | 0 mm | - | - | - |
| 1787491147 | 29.44° C | 57% | 1017.1 hPa | 0 mm | - | - | - |
| 1787490844 | 28.33° C | 60% | 1017.1 hPa | 0 mm | - | - | - |
| 1787490543 | 28.33° C | 62% | 1017 hPa | 0 mm | - | - | - |
| 1787490243 | 27.78° C | 61% | 1016.9 hPa | 0 mm | - | - | - |
| 1787489941 | 27.78° C | 62% | 1017.1 hPa | 0 mm | - | - | - |
* Rain latest hour (hover to see other rain measurements)
** Current wind speed in m/s (hover to see current wind gust speed)